sensor_id;sensor_type;location;lat;lon;timestamp;P1;durP1;ratioP1;P2;durP2;ratioP2
26488;SDS011;14169;43.684;10.484;2022-10-16T00:01:19;14.88;;;13.43;;
26488;SDS011;14169;43.684;10.484;2022-10-16T00:03:46;14.45;;;13.02;;
26488;SDS011;14169;43.684;10.484;2022-10-16T00:06:13;16.63;;;14.93;;
26488;SDS011;14169;43.684;10.484;2022-10-16T00:08:40;17.08;;;15.25;;
26488;SDS011;14169;43.684;10.484;2022-10-16T00:11:10;19.67;;;15.40;;
26488;SDS011;14169;43.684;10.484;2022-10-16T00:13:38;19.23;;;15.50;;
26488;SDS011;14169;43.684;10.484;2022-10-16T00:16:04;19.20;;;15.20;;
26488;SDS011;14169;43.684;10.484;2022-10-16T00:18:32;17.50;;;14.52;;
26488;SDS011;14169;43.684;10.484;2022-10-16T00:21:02;15.30;;;13.93;;
26488;SDS011;14169;43.684;10.484;2022-10-16T00:23:30;15.20;;;13.57;;
26488;SDS011;14169;43.684;10.484;2022-10-16T00:25:59;17.90;;;13.98;;
26488;SDS011;14169;43.684;10.484;2022-10-16T00:28:26;15.80;;;14.20;;
26488;SDS011;14169;43.684;10.484;2022-10-16T00:30:52;15.85;;;14.02;;
26488;SDS011;14169;43.684;10.484;2022-10-16T00:33:18;16.58;;;12.55;;
26488;SDS011;14169;43.684;10.484;2022-10-16T00:35:44;17.38;;;13.65;;
26488;SDS011;14169;43.684;10.484;2022-10-16T00:38:09;13.85;;;12.55;;
26488;SDS011;14169;43.684;10.484;2022-10-16T00:40:35;13.63;;;12.23;;
26488;SDS011;14169;43.684;10.484;2022-10-16T00:43:00;16.27;;;12.80;;
26488;SDS011;14169;43.684;10.484;2022-10-16T00:45:26;14.50;;;12.35;;
26488;SDS011;14169;43.684;10.484;2022-10-16T00:47:51;17.98;;;11.45;;
26488;SDS011;14169;43.684;10.484;2022-10-16T00:50:27;14.00;;;11.43;;
26488;SDS011;14169;43.684;10.484;2022-10-16T00:52:55;15.00;;;11.95;;
26488;SDS011;14169;43.684;10.484;2022-10-16T00:55:21;12.88;;;11.48;;
26488;SDS011;14169;43.684;10.484;2022-10-16T00:57:47;14.50;;;10.98;;
26488;SDS011;14169;43.684;10.484;2022-10-16T01:00:15;15.00;;;12.43;;
26488;SDS011;14169;43.684;10.484;2022-10-16T01:02:56;12.50;;;11.32;;
26488;SDS011;14169;43.684;10.484;2022-10-16T01:05:42;12.18;;;11.18;;
26488;SDS011;14169;43.684;10.484;2022-10-16T01:08:21;13.38;;;12.07;;
26488;SDS011;14169;43.684;10.484;2022-10-16T01:14:19;14.68;;;12.55;;
26488;SDS011;14169;43.684;10.484;2022-10-16T01:19:20;16.23;;;12.43;;
26488;SDS011;14169;43.684;10.484;2022-10-16T01:21:50;12.50;;;11.30;;
26488;SDS011;14169;43.684;10.484;2022-10-16T01:24:31;13.85;;;12.55;;
26488;SDS011;14169;43.684;10.484;2022-10-16T01:29:55;15.40;;;11.68;;
26488;SDS011;14169;43.684;10.484;2022-10-16T01:37:44;12.93;;;11.65;;
26488;SDS011;14169;43.684;10.484;2022-10-16T01:40:14;12.32;;;11.23;;
26488;SDS011;14169;43.684;10.484;2022-10-16T01:42:45;13.07;;;10.48;;
26488;SDS011;14169;43.684;10.484;2022-10-16T01:45:15;12.52;;;11.38;;
26488;SDS011;14169;43.684;10.484;2022-10-16T01:47:44;14.80;;;11.63;;
26488;SDS011;14169;43.684;10.484;2022-10-16T01:50:10;14.35;;;10.75;;
26488;SDS011;14169;43.684;10.484;2022-10-16T01:52:40;12.68;;;11.32;;
26488;SDS011;14169;43.684;10.484;2022-10-16T01:55:09;12.98;;;11.70;;
26488;SDS011;14169;43.684;10.484;2022-10-16T01:57:38;11.45;;;10.45;;
26488;SDS011;14169;43.684;10.484;2022-10-16T02:00:07;12.60;;;11.27;;
26488;SDS011;14169;43.684;10.484;2022-10-16T02:02:35;13.35;;;12.05;;
26488;SDS011;14169;43.684;10.484;2022-10-16T02:10:03;15.27;;;12.80;;
26488;SDS011;14169;43.684;10.484;2022-10-16T02:12:32;13.43;;;12.00;;
26488;SDS011;14169;43.684;10.484;2022-10-16T02:15:00;13.45;;;12.18;;
26488;SDS011;14169;43.684;10.484;2022-10-16T02:17:25;17.75;;;11.75;;
26488;SDS011;14169;43.684;10.484;2022-10-16T02:19:52;13.55;;;12.23;;
26488;SDS011;14169;43.684;10.484;2022-10-16T02:22:52;15.00;;;12.27;;
26488;SDS011;14169;43.684;10.484;2022-10-16T02:25:22;12.88;;;11.57;;
26488;SDS011;14169;43.684;10.484;2022-10-16T02:28:13;13.55;;;12.20;;
26488;SDS011;14169;43.684;10.484;2022-10-16T02:30:44;13.00;;;11.70;;
26488;SDS011;14169;43.684;10.484;2022-10-16T02:33:13;12.85;;;11.55;;
26488;SDS011;14169;43.684;10.484;2022-10-16T02:35:41;12.98;;;11.13;;
26488;SDS011;14169;43.684;10.484;2022-10-16T02:38:08;13.52;;;11.82;;
26488;SDS011;14169;43.684;10.484;2022-10-16T02:40:34;13.25;;;11.88;;
26488;SDS011;14169;43.684;10.484;2022-10-16T02:43:02;14.93;;;12.48;;
26488;SDS011;14169;43.684;10.484;2022-10-16T02:45:29;13.25;;;11.88;;
26488;SDS011;14169;43.684;10.484;2022-10-16T02:47:55;12.73;;;11.57;;
26488;SDS011;14169;43.684;10.484;2022-10-16T02:50:20;15.52;;;12.00;;
26488;SDS011;14169;43.684;10.484;2022-10-16T02:52:46;19.52;;;12.18;;
26488;SDS011;14169;43.684;10.484;2022-10-16T02:55:11;11.98;;;10.82;;
26488;SDS011;14169;43.684;10.484;2022-10-16T02:57:37;17.20;;;13.20;;
26488;SDS011;14169;43.684;10.484;2022-10-16T03:00:03;13.32;;;11.60;;
26488;SDS011;14169;43.684;10.484;2022-10-16T03:02:30;15.43;;;12.45;;
26488;SDS011;14169;43.684;10.484;2022-10-16T03:04:55;13.32;;;11.98;;
26488;SDS011;14169;43.684;10.484;2022-10-16T03:07:20;13.32;;;11.93;;
26488;SDS011;14169;43.684;10.484;2022-10-16T03:09:46;14.40;;;12.27;;
26488;SDS011;14169;43.684;10.484;2022-10-16T03:12:11;14.38;;;12.32;;
26488;SDS011;14169;43.684;10.484;2022-10-16T03:14:37;13.07;;;11.77;;
26488;SDS011;14169;43.684;10.484;2022-10-16T03:17:02;15.77;;;11.98;;
26488;SDS011;14169;43.684;10.484;2022-10-16T03:19:28;13.57;;;11.77;;
26488;SDS011;14169;43.684;10.484;2022-10-16T03:21:53;13.40;;;12.18;;
26488;SDS011;14169;43.684;10.484;2022-10-16T03:24:18;12.55;;;11.43;;
26488;SDS011;14169;43.684;10.484;2022-10-16T03:26:44;12.75;;;11.48;;
26488;SDS011;14169;43.684;10.484;2022-10-16T03:29:09;15.10;;;11.98;;
26488;SDS011;14169;43.684;10.484;2022-10-16T03:31:35;14.77;;;12.80;;
26488;SDS011;14169;43.684;10.484;2022-10-16T03:34:00;17.80;;;13.45;;
26488;SDS011;14169;43.684;10.484;2022-10-16T03:36:25;16.20;;;11.35;;
26488;SDS011;14169;43.684;10.484;2022-10-16T03:38:51;14.98;;;10.88;;
26488;SDS011;14169;43.684;10.484;2022-10-16T03:41:16;12.98;;;11.70;;
26488;SDS011;14169;43.684;10.484;2022-10-16T03:43:42;15.10;;;11.20;;
26488;SDS011;14169;43.684;10.484;2022-10-16T03:46:07;14.68;;;11.95;;
26488;SDS011;14169;43.684;10.484;2022-10-16T03:48:33;16.90;;;12.73;;
26488;SDS011;14169;43.684;10.484;2022-10-16T03:50:58;12.32;;;10.35;;
26488;SDS011;14169;43.684;10.484;2022-10-16T03:53:24;14.57;;;11.70;;
26488;SDS011;14169;43.684;10.484;2022-10-16T03:55:50;15.23;;;11.35;;
26488;SDS011;14169;43.684;10.484;2022-10-16T03:58:15;13.20;;;10.98;;
26488;SDS011;14169;43.684;10.484;2022-10-16T04:00:41;12.25;;;11.20;;
26488;SDS011;14169;43.684;10.484;2022-10-16T04:03:10;12.85;;;10.95;;
26488;SDS011;14169;43.684;10.484;2022-10-16T04:05:36;12.35;;;11.18;;
26488;SDS011;14169;43.684;10.484;2022-10-16T04:08:02;13.32;;;11.50;;
26488;SDS011;14169;43.684;10.484;2022-10-16T04:10:28;12.75;;;11.55;;
26488;SDS011;14169;43.684;10.484;2022-10-16T04:12:53;12.52;;;10.45;;
26488;SDS011;14169;43.684;10.484;2022-10-16T04:15:20;13.73;;;11.63;;
26488;SDS011;14169;43.684;10.484;2022-10-16T04:17:49;18.65;;;11.32;;
26488;SDS011;14169;43.684;10.484;2022-10-16T04:20:16;14.23;;;11.10;;
26488;SDS011;14169;43.684;10.484;2022-10-16T04:22:41;11.27;;;10.27;;
26488;SDS011;14169;43.684;10.484;2022-10-16T04:25:06;13.85;;;12.35;;
26488;SDS011;14169;43.684;10.484;2022-10-16T04:27:32;13.07;;;11.18;;
26488;SDS011;14169;43.684;10.484;2022-10-16T04:29:58;13.25;;;11.98;;
26488;SDS011;14169;43.684;10.484;2022-10-16T04:32:24;15.27;;;11.68;;
26488;SDS011;14169;43.684;10.484;2022-10-16T04:34:50;14.50;;;11.70;;
26488;SDS011;14169;43.684;10.484;2022-10-16T04:37:16;12.52;;;11.35;;
26488;SDS011;14169;43.684;10.484;2022-10-16T04:39:41;12.10;;;10.90;;
26488;SDS011;14169;43.684;10.484;2022-10-16T04:42:07;13.50;;;12.13;;
26488;SDS011;14169;43.684;10.484;2022-10-16T04:44:32;12.95;;;11.73;;
26488;SDS011;14169;43.684;10.484;2022-10-16T04:46:58;12.23;;;10.93;;
26488;SDS011;14169;43.684;10.484;2022-10-16T04:49:23;12.32;;;11.23;;
26488;SDS011;14169;43.684;10.484;2022-10-16T04:51:48;13.57;;;11.95;;
26488;SDS011;14169;43.684;10.484;2022-10-16T04:54:14;11.57;;;10.40;;
26488;SDS011;14169;43.684;10.484;2022-10-16T04:56:39;14.48;;;12.35;;
26488;SDS011;14169;43.684;10.484;2022-10-16T04:59:11;14.80;;;11.35;;
26488;SDS011;14169;43.684;10.484;2022-10-16T05:01:38;12.10;;;11.00;;
26488;SDS011;14169;43.684;10.484;2022-10-16T05:04:03;15.65;;;11.55;;
26488;SDS011;14169;43.684;10.484;2022-10-16T05:06:29;13.10;;;11.90;;
26488;SDS011;14169;43.684;10.484;2022-10-16T05:08:54;13.35;;;11.68;;
26488;SDS011;14169;43.684;10.484;2022-10-16T05:11:20;13.77;;;12.38;;
26488;SDS011;14169;43.684;10.484;2022-10-16T05:13:45;13.70;;;12.32;;
26488;SDS011;14169;43.684;10.484;2022-10-16T05:16:11;14.02;;;12.68;;
26488;SDS011;14169;43.684;10.484;2022-10-16T05:18:36;13.35;;;12.13;;
26488;SDS011;14169;43.684;10.484;2022-10-16T05:21:01;15.80;;;13.45;;
26488;SDS011;14169;43.684;10.484;2022-10-16T05:23:27;15.23;;;12.02;;
26488;SDS011;14169;43.684;10.484;2022-10-16T05:25:56;14.13;;;12.68;;
26488;SDS011;14169;43.684;10.484;2022-10-16T05:28:24;17.50;;;14.07;;
26488;SDS011;14169;43.684;10.484;2022-10-16T05:30:50;14.25;;;12.88;;
26488;SDS011;14169;43.684;10.484;2022-10-16T05:33:15;15.38;;;13.88;;
26488;SDS011;14169;43.684;10.484;2022-10-16T05:35:41;18.20;;;13.05;;
26488;SDS011;14169;43.684;10.484;2022-10-16T05:38:06;15.52;;;13.35;;
26488;SDS011;14169;43.684;10.484;2022-10-16T05:40:32;14.65;;;12.90;;
26488;SDS011;14169;43.684;10.484;2022-10-16T05:42:57;17.67;;;13.20;;
26488;SDS011;14169;43.684;10.484;2022-10-16T05:45:23;14.93;;;13.50;;
26488;SDS011;14169;43.684;10.484;2022-10-16T05:47:48;16.00;;;13.20;;
26488;SDS011;14169;43.684;10.484;2022-10-16T05:50:13;17.92;;;14.32;;
26488;SDS011;14169;43.684;10.484;2022-10-16T05:52:39;15.35;;;13.85;;
26488;SDS011;14169;43.684;10.484;2022-10-16T05:55:04;17.92;;;16.30;;
26488;SDS011;14169;43.684;10.484;2022-10-16T05:57:30;17.20;;;15.27;;
26488;SDS011;14169;43.684;10.484;2022-10-16T05:59:56;16.73;;;15.07;;
26488;SDS011;14169;43.684;10.484;2022-10-16T06:02:21;29.70;;;16.67;;
26488;SDS011;14169;43.684;10.484;2022-10-16T06:04:47;20.45;;;17.48;;
26488;SDS011;14169;43.684;10.484;2022-10-16T06:07:12;26.23;;;18.42;;
26488;SDS011;14169;43.684;10.484;2022-10-16T06:09:37;18.60;;;16.55;;
26488;SDS011;14169;43.684;10.484;2022-10-16T06:12:03;19.15;;;16.35;;
26488;SDS011;14169;43.684;10.484;2022-10-16T06:14:28;18.42;;;16.45;;
26488;SDS011;14169;43.684;10.484;2022-10-16T06:16:54;20.83;;;16.45;;
26488;SDS011;14169;43.684;10.484;2022-10-16T06:19:19;18.10;;;16.40;;
26488;SDS011;14169;43.684;10.484;2022-10-16T06:21:44;18.38;;;16.45;;
26488;SDS011;14169;43.684;10.484;2022-10-16T06:24:10;17.38;;;15.63;;
26488;SDS011;14169;43.684;10.484;2022-10-16T06:26:36;16.77;;;14.85;;
26488;SDS011;14169;43.684;10.484;2022-10-16T06:29:02;17.20;;;15.70;;
26488;SDS011;14169;43.684;10.484;2022-10-16T06:31:27;19.20;;;15.93;;
26488;SDS011;14169;43.684;10.484;2022-10-16T06:33:55;17.55;;;15.85;;
26488;SDS011;14169;43.684;10.484;2022-10-16T06:36:21;17.85;;;15.48;;
26488;SDS011;14169;43.684;10.484;2022-10-16T06:38:47;16.35;;;14.30;;
26488;SDS011;14169;43.684;10.484;2022-10-16T06:41:14;16.98;;;15.18;;
26488;SDS011;14169;43.684;10.484;2022-10-16T06:43:41;16.45;;;14.85;;
26488;SDS011;14169;43.684;10.484;2022-10-16T06:46:09;14.95;;;13.55;;
26488;SDS011;14169;43.684;10.484;2022-10-16T06:48:35;16.15;;;14.05;;
26488;SDS011;14169;43.684;10.484;2022-10-16T06:51:03;15.60;;;13.13;;
26488;SDS011;14169;43.684;10.484;2022-10-16T06:53:30;14.50;;;12.98;;
26488;SDS011;14169;43.684;10.484;2022-10-16T06:55:57;21.05;;;13.27;;
26488;SDS011;14169;43.684;10.484;2022-10-16T06:58:22;14.55;;;12.20;;
26488;SDS011;14169;43.684;10.484;2022-10-16T07:00:48;17.35;;;13.07;;
26488;SDS011;14169;43.684;10.484;2022-10-16T07:03:14;15.40;;;12.80;;
26488;SDS011;14169;43.684;10.484;2022-10-16T07:05:40;13.15;;;11.95;;
26488;SDS011;14169;43.684;10.484;2022-10-16T07:08:07;13.43;;;11.73;;
26488;SDS011;14169;43.684;10.484;2022-10-16T07:10:34;14.50;;;11.65;;
26488;SDS011;14169;43.684;10.484;2022-10-16T07:13:00;13.82;;;12.60;;
26488;SDS011;14169;43.684;10.484;2022-10-16T07:15:26;17.75;;;11.73;;
26488;SDS011;14169;43.684;10.484;2022-10-16T07:17:52;13.43;;;12.18;;
26488;SDS011;14169;43.684;10.484;2022-10-16T07:20:17;13.45;;;12.13;;
26488;SDS011;14169;43.684;10.484;2022-10-16T07:22:43;12.52;;;11.35;;
26488;SDS011;14169;43.684;10.484;2022-10-16T07:25:08;12.73;;;11.75;;
26488;SDS011;14169;43.684;10.484;2022-10-16T07:27:34;12.82;;;11.45;;
26488;SDS011;14169;43.684;10.484;2022-10-16T07:29:59;12.02;;;10.50;;
26488;SDS011;14169;43.684;10.484;2022-10-16T07:32:26;12.88;;;11.57;;
26488;SDS011;14169;43.684;10.484;2022-10-16T07:34:52;16.17;;;12.00;;
26488;SDS011;14169;43.684;10.484;2022-10-16T07:37:18;11.90;;;10.68;;
26488;SDS011;14169;43.684;10.484;2022-10-16T07:39:44;14.48;;;11.10;;
26488;SDS011;14169;43.684;10.484;2022-10-16T07:42:09;12.98;;;9.88;;
26488;SDS011;14169;43.684;10.484;2022-10-16T07:44:34;12.27;;;11.05;;
26488;SDS011;14169;43.684;10.484;2022-10-16T07:47:00;11.73;;;10.60;;
26488;SDS011;14169;43.684;10.484;2022-10-16T07:49:25;13.63;;;11.50;;
26488;SDS011;14169;43.684;10.484;2022-10-16T07:51:51;14.60;;;10.88;;
26488;SDS011;14169;43.684;10.484;2022-10-16T07:54:16;14.73;;;11.80;;
26488;SDS011;14169;43.684;10.484;2022-10-16T07:56:41;12.40;;;11.07;;
26488;SDS011;14169;43.684;10.484;2022-10-16T07:59:07;15.48;;;12.40;;
26488;SDS011;14169;43.684;10.484;2022-10-16T08:01:32;15.32;;;12.98;;
26488;SDS011;14169;43.684;10.484;2022-10-16T08:03:58;13.88;;;11.77;;
26488;SDS011;14169;43.684;10.484;2022-10-16T08:06:23;11.98;;;10.80;;
26488;SDS011;14169;43.684;10.484;2022-10-16T08:08:49;13.60;;;11.00;;
26488;SDS011;14169;43.684;10.484;2022-10-16T08:11:14;12.32;;;10.05;;
26488;SDS011;14169;43.684;10.484;2022-10-16T08:13:40;11.75;;;9.73;;
26488;SDS011;14169;43.684;10.484;2022-10-16T08:16:06;11.40;;;8.93;;
26488;SDS011;14169;43.684;10.484;2022-10-16T08:18:35;10.80;;;8.93;;
26488;SDS011;14169;43.684;10.484;2022-10-16T08:21:03;12.00;;;8.93;;
26488;SDS011;14169;43.684;10.484;2022-10-16T08:23:29;12.38;;;9.10;;
26488;SDS011;14169;43.684;10.484;2022-10-16T08:25:56;10.48;;;8.65;;
26488;SDS011;14169;43.684;10.484;2022-10-16T08:28:26;8.55;;;7.68;;
26488;SDS011;14169;43.684;10.484;2022-10-16T08:30:51;9.70;;;7.93;;
26488;SDS011;14169;43.684;10.484;2022-10-16T08:33:17;9.95;;;8.82;;
26488;SDS011;14169;43.684;10.484;2022-10-16T08:35:42;10.63;;;8.35;;
26488;SDS011;14169;43.684;10.484;2022-10-16T08:38:07;9.30;;;8.32;;
26488;SDS011;14169;43.684;10.484;2022-10-16T08:40:34;9.95;;;7.80;;
26488;SDS011;14169;43.684;10.484;2022-10-16T08:43:23;11.43;;;8.70;;
26488;SDS011;14169;43.684;10.484;2022-10-16T08:51:12;10.60;;;6.88;;
26488;SDS011;14169;43.684;10.484;2022-10-16T08:54:45;9.20;;;7.28;;
26488;SDS011;14169;43.684;10.484;2022-10-16T08:57:07;9.52;;;7.32;;
26488;SDS011;14169;43.684;10.484;2022-10-16T08:59:36;7.93;;;7.10;;
26488;SDS011;14169;43.684;10.484;2022-10-16T09:02:01;6.97;;;6.32;;
26488;SDS011;14169;43.684;10.484;2022-10-16T09:10:29;12.98;;;6.18;;
26488;SDS011;14169;43.684;10.484;2022-10-16T09:15:47;14.63;;;6.82;;
26488;SDS011;14169;43.684;10.484;2022-10-16T09:18:59;8.50;;;6.15;;
26488;SDS011;14169;43.684;10.484;2022-10-16T09:21:36;15.23;;;6.10;;
26488;SDS011;14169;43.684;10.484;2022-10-16T09:24:13;8.07;;;6.43;;
26488;SDS011;14169;43.684;10.484;2022-10-16T09:26:40;7.18;;;6.47;;
26488;SDS011;14169;43.684;10.484;2022-10-16T09:29:05;7.45;;;6.57;;
26488;SDS011;14169;43.684;10.484;2022-10-16T09:31:31;5.75;;;5.25;;
26488;SDS011;14169;43.684;10.484;2022-10-16T09:33:59;7.57;;;5.25;;
26488;SDS011;14169;43.684;10.484;2022-10-16T09:36:31;6.85;;;5.30;;
26488;SDS011;14169;43.684;10.484;2022-10-16T09:39:05;7.68;;;5.22;;
26488;SDS011;14169;43.684;10.484;2022-10-16T09:41:34;9.20;;;5.78;;
26488;SDS011;14169;43.684;10.484;2022-10-16T09:44:02;8.50;;;4.88;;
26488;SDS011;14169;43.684;10.484;2022-10-16T09:46:31;5.63;;;5.07;;
26488;SDS011;14169;43.684;10.484;2022-10-16T09:49:02;7.93;;;4.82;;
26488;SDS011;14169;43.684;10.484;2022-10-16T09:51:32;5.13;;;4.63;;
26488;SDS011;14169;43.684;10.484;2022-10-16T09:56:35;9.95;;;4.93;;
26488;SDS011;14169;43.684;10.484;2022-10-16T09:59:14;7.03;;;4.80;;
26488;SDS011;14169;43.684;10.484;2022-10-16T10:01:44;8.05;;;3.97;;
26488;SDS011;14169;43.684;10.484;2022-10-16T10:04:14;4.97;;;4.18;;
26488;SDS011;14169;43.684;10.484;2022-10-16T10:06:43;7.03;;;4.82;;
26488;SDS011;14169;43.684;10.484;2022-10-16T10:11:53;5.20;;;3.33;;
26488;SDS011;14169;43.684;10.484;2022-10-16T10:17:07;4.05;;;3.20;;
26488;SDS011;14169;43.684;10.484;2022-10-16T10:19:49;5.75;;;3.00;;
26488;SDS011;14169;43.684;10.484;2022-10-16T10:46:56;6.38;;;2.40;;
26488;SDS011;14169;43.684;10.484;2022-10-16T10:54:41;5.15;;;3.03;;
26488;SDS011;14169;43.684;10.484;2022-10-16T11:08:20;3.45;;;2.45;;
26488;SDS011;14169;43.684;10.484;2022-10-16T11:11:09;2.40;;;1.70;;
26488;SDS011;14169;43.684;10.484;2022-10-16T11:16:13;3.78;;;2.13;;
26488;SDS011;14169;43.684;10.484;2022-10-16T11:18:50;3.03;;;2.15;;
26488;SDS011;14169;43.684;10.484;2022-10-16T11:21:21;3.13;;;1.80;;
26488;SDS011;14169;43.684;10.484;2022-10-16T11:23:53;2.05;;;1.45;;
26488;SDS011;14169;43.684;10.484;2022-10-16T11:26:25;2.45;;;1.48;;
26488;SDS011;14169;43.684;10.484;2022-10-16T11:28:55;3.45;;;1.52;;
26488;SDS011;14169;43.684;10.484;2022-10-16T11:31:24;4.15;;;1.30;;
26488;SDS011;14169;43.684;10.484;2022-10-16T11:39:20;1.77;;;1.35;;
26488;SDS011;14169;43.684;10.484;2022-10-16T11:42:02;4.78;;;1.98;;
26488;SDS011;14169;43.684;10.484;2022-10-16T11:47:01;3.25;;;1.60;;
26488;SDS011;14169;43.684;10.484;2022-10-16T11:49:27;2.75;;;1.30;;
26488;SDS011;14169;43.684;10.484;2022-10-16T11:52:00;5.40;;;1.65;;
26488;SDS011;14169;43.684;10.484;2022-10-16T11:54:51;2.72;;;1.45;;
26488;SDS011;14169;43.684;10.484;2022-10-16T11:57:28;2.58;;;1.17;;
26488;SDS011;14169;43.684;10.484;2022-10-16T12:00:40;1.95;;;1.15;;
26488;SDS011;14169;43.684;10.484;2022-10-16T12:08:22;1.80;;;1.23;;
26488;SDS011;14169;43.684;10.484;2022-10-16T12:10:48;2.65;;;1.30;;
26488;SDS011;14169;43.684;10.484;2022-10-16T12:18:37;9.65;;;1.67;;
26488;SDS011;14169;43.684;10.484;2022-10-16T12:21:07;2.78;;;1.35;;
26488;SDS011;14169;43.684;10.484;2022-10-16T12:23:36;1.60;;;1.42;;
26488;SDS011;14169;43.684;10.484;2022-10-16T12:26:04;2.92;;;1.42;;
26488;SDS011;14169;43.684;10.484;2022-10-16T12:28:33;3.92;;;1.60;;
26488;SDS011;14169;43.684;10.484;2022-10-16T12:31:01;2.65;;;1.55;;
26488;SDS011;14169;43.684;10.484;2022-10-16T12:33:31;5.07;;;1.65;;
26488;SDS011;14169;43.684;10.484;2022-10-16T12:35:59;1.63;;;1.40;;
26488;SDS011;14169;43.684;10.484;2022-10-16T12:38:28;2.28;;;1.73;;
26488;SDS011;14169;43.684;10.484;2022-10-16T12:40:55;1.85;;;1.65;;
26488;SDS011;14169;43.684;10.484;2022-10-16T12:43:38;1.98;;;1.45;;
26488;SDS011;14169;43.684;10.484;2022-10-16T12:48:40;3.20;;;1.75;;
26488;SDS011;14169;43.684;10.484;2022-10-16T12:54:01;3.42;;;1.67;;
26488;SDS011;14169;43.684;10.484;2022-10-16T12:59:38;3.15;;;1.50;;
26488;SDS011;14169;43.684;10.484;2022-10-16T13:22:32;4.63;;;1.60;;
26488;SDS011;14169;43.684;10.484;2022-10-16T13:25:21;3.40;;;1.27;;
26488;SDS011;14169;43.684;10.484;2022-10-16T13:28:04;2.45;;;1.50;;
26488;SDS011;14169;43.684;10.484;2022-10-16T13:33:37;2.13;;;1.50;;
26488;SDS011;14169;43.684;10.484;2022-10-16T13:36:05;2.25;;;1.50;;
26488;SDS011;14169;43.684;10.484;2022-10-16T13:38:34;2.38;;;1.92;;
26488;SDS011;14169;43.684;10.484;2022-10-16T13:41:01;1.60;;;1.25;;
26488;SDS011;14169;43.684;10.484;2022-10-16T13:43:39;2.80;;;1.33;;
26488;SDS011;14169;43.684;10.484;2022-10-16T13:46:06;3.20;;;1.98;;
26488;SDS011;14169;43.684;10.484;2022-10-16T13:48:37;4.03;;;1.95;;
26488;SDS011;14169;43.684;10.484;2022-10-16T13:51:11;2.60;;;2.33;;
26488;SDS011;14169;43.684;10.484;2022-10-16T13:53:39;3.40;;;2.03;;
26488;SDS011;14169;43.684;10.484;2022-10-16T13:56:07;4.75;;;2.38;;
26488;SDS011;14169;43.684;10.484;2022-10-16T14:01:03;3.95;;;2.25;;
26488;SDS011;14169;43.684;10.484;2022-10-16T14:03:30;3.80;;;2.50;;
26488;SDS011;14169;43.684;10.484;2022-10-16T14:06:00;3.63;;;2.40;;
26488;SDS011;14169;43.684;10.484;2022-10-16T14:08:28;5.93;;;2.70;;
26488;SDS011;14169;43.684;10.484;2022-10-16T14:10:59;3.90;;;2.92;;
26488;SDS011;14169;43.684;10.484;2022-10-16T14:13:44;4.05;;;2.80;;
26488;SDS011;14169;43.684;10.484;2022-10-16T14:16:16;3.88;;;2.30;;
26488;SDS011;14169;43.684;10.484;2022-10-16T14:18:45;4.03;;;2.40;;
26488;SDS011;14169;43.684;10.484;2022-10-16T14:21:15;3.78;;;3.38;;
26488;SDS011;14169;43.684;10.484;2022-10-16T14:23:42;5.00;;;2.65;;
26488;SDS011;14169;43.684;10.484;2022-10-16T14:28:33;3.97;;;2.88;;
26488;SDS011;14169;43.684;10.484;2022-10-16T14:31:00;4.63;;;2.75;;
26488;SDS011;14169;43.684;10.484;2022-10-16T14:36:00;3.60;;;2.47;;
26488;SDS011;14169;43.684;10.484;2022-10-16T14:41:43;4.60;;;2.25;;
26488;SDS011;14169;43.684;10.484;2022-10-16T14:46:37;3.28;;;2.22;;
26488;SDS011;14169;43.684;10.484;2022-10-16T14:51:38;4.63;;;3.58;;
26488;SDS011;14169;43.684;10.484;2022-10-16T14:54:07;7.53;;;3.45;;
26488;SDS011;14169;43.684;10.484;2022-10-16T14:59:44;10.43;;;3.13;;
26488;SDS011;14169;43.684;10.484;2022-10-16T15:04:54;4.70;;;2.60;;
26488;SDS011;14169;43.684;10.484;2022-10-16T15:07:20;2.92;;;2.40;;
26488;SDS011;14169;43.684;10.484;2022-10-16T15:09:46;5.30;;;2.88;;
26488;SDS011;14169;43.684;10.484;2022-10-16T15:12:12;9.02;;;2.65;;
26488;SDS011;14169;43.684;10.484;2022-10-16T15:14:37;5.38;;;3.08;;
26488;SDS011;14169;43.684;10.484;2022-10-16T15:17:03;6.60;;;2.60;;
26488;SDS011;14169;43.684;10.484;2022-10-16T15:19:28;6.07;;;3.38;;
26488;SDS011;14169;43.684;10.484;2022-10-16T15:21:54;6.40;;;3.47;;
26488;SDS011;14169;43.684;10.484;2022-10-16T15:24:19;4.95;;;3.42;;
26488;SDS011;14169;43.684;10.484;2022-10-16T15:26:45;5.88;;;3.58;;
26488;SDS011;14169;43.684;10.484;2022-10-16T15:29:14;4.50;;;3.13;;
26488;SDS011;14169;43.684;10.484;2022-10-16T15:31:39;4.55;;;3.33;;
26488;SDS011;14169;43.684;10.484;2022-10-16T15:34:08;3.20;;;2.90;;
26488;SDS011;14169;43.684;10.484;2022-10-16T15:36:35;5.57;;;2.88;;
26488;SDS011;14169;43.684;10.484;2022-10-16T15:39:06;10.35;;;3.25;;
26488;SDS011;14169;43.684;10.484;2022-10-16T15:41:44;4.57;;;3.20;;
26488;SDS011;14169;43.684;10.484;2022-10-16T15:46:40;6.32;;;4.30;;
26488;SDS011;14169;43.684;10.484;2022-10-16T15:49:06;6.45;;;3.75;;
26488;SDS011;14169;43.684;10.484;2022-10-16T15:51:31;11.00;;;4.38;;
26488;SDS011;14169;43.684;10.484;2022-10-16T15:53:58;6.25;;;5.00;;
26488;SDS011;14169;43.684;10.484;2022-10-16T15:56:26;5.95;;;4.53;;
26488;SDS011;14169;43.684;10.484;2022-10-16T15:58:53;5.38;;;3.75;;
26488;SDS011;14169;43.684;10.484;2022-10-16T16:01:19;5.75;;;4.57;;
26488;SDS011;14169;43.684;10.484;2022-10-16T16:03:45;6.90;;;4.78;;
26488;SDS011;14169;43.684;10.484;2022-10-16T16:06:11;5.45;;;4.55;;
26488;SDS011;14169;43.684;10.484;2022-10-16T16:08:38;7.28;;;4.95;;
26488;SDS011;14169;43.684;10.484;2022-10-16T16:11:07;9.05;;;5.07;;
26488;SDS011;14169;43.684;10.484;2022-10-16T16:13:34;6.18;;;4.50;;
26488;SDS011;14169;43.684;10.484;2022-10-16T16:16:05;8.15;;;4.82;;
26488;SDS011;14169;43.684;10.484;2022-10-16T16:18:32;9.90;;;4.45;;
26488;SDS011;14169;43.684;10.484;2022-10-16T16:20:58;6.28;;;3.83;;
26488;SDS011;14169;43.684;10.484;2022-10-16T16:23:23;4.35;;;3.47;;
26488;SDS011;14169;43.684;10.484;2022-10-16T16:28:36;7.55;;;5.22;;
26488;SDS011;14169;43.684;10.484;2022-10-16T16:31:02;6.00;;;4.45;;
26488;SDS011;14169;43.684;10.484;2022-10-16T16:33:28;7.00;;;4.40;;
26488;SDS011;14169;43.684;10.484;2022-10-16T16:36:00;9.93;;;5.25;;
26488;SDS011;14169;43.684;10.484;2022-10-16T16:38:27;6.07;;;5.22;;
26488;SDS011;14169;43.684;10.484;2022-10-16T16:40:53;5.03;;;4.07;;
26488;SDS011;14169;43.684;10.484;2022-10-16T16:43:22;4.88;;;3.72;;
26488;SDS011;14169;43.684;10.484;2022-10-16T16:45:48;4.05;;;3.70;;
26488;SDS011;14169;43.684;10.484;2022-10-16T16:48:13;8.85;;;4.57;;
26488;SDS011;14169;43.684;10.484;2022-10-16T16:50:39;7.97;;;4.88;;
26488;SDS011;14169;43.684;10.484;2022-10-16T16:53:04;6.13;;;5.57;;
26488;SDS011;14169;43.684;10.484;2022-10-16T16:55:29;9.00;;;5.85;;
26488;SDS011;14169;43.684;10.484;2022-10-16T16:57:55;8.75;;;5.78;;
26488;SDS011;14169;43.684;10.484;2022-10-16T17:00:21;7.65;;;6.50;;
26488;SDS011;14169;43.684;10.484;2022-10-16T17:02:48;5.60;;;4.93;;
26488;SDS011;14169;43.684;10.484;2022-10-16T17:05:14;5.25;;;4.50;;
26488;SDS011;14169;43.684;10.484;2022-10-16T17:07:40;7.50;;;5.45;;
26488;SDS011;14169;43.684;10.484;2022-10-16T17:10:06;5.85;;;5.25;;